createdAt,value
2023-05-19T00:00:02.347Z,15.04
2023-05-19T00:02:39.534Z,15.05
2023-05-19T00:05:08.037Z,15.04
2023-05-19T00:07:38.246Z,15.03
2023-05-19T00:10:07.101Z,15.07
2023-05-19T00:12:34.967Z,15.07
2023-05-19T00:15:02.636Z,15.08
2023-05-19T00:17:31.046Z,15.05
2023-05-19T00:19:58.338Z,15.01
2023-05-19T00:22:25.884Z,15.01
2023-05-19T00:24:53.105Z,15.01
2023-05-19T00:27:20.820Z,14.99
2023-05-19T00:29:47.993Z,15.00
2023-05-19T00:32:15.956Z,15.00
2023-05-19T00:34:43.256Z,14.99
2023-05-19T00:37:10.628Z,14.95
2023-05-19T00:39:37.808Z,14.94
2023-05-19T00:42:05.849Z,14.93
2023-05-19T00:44:33.062Z,14.90
2023-05-19T00:47:00.391Z,14.89
2023-05-19T00:49:27.693Z,14.88
2023-05-19T00:51:55.756Z,14.87
2023-05-19T00:54:23.824Z,14.86
2023-05-19T00:56:51.330Z,14.81
2023-05-19T00:59:18.820Z,14.80
2023-05-19T01:01:49.029Z,14.80
2023-05-19T01:04:20.119Z,14.81
2023-05-19T01:06:55.209Z,14.81
2023-05-19T01:09:23.554Z,14.78
2023-05-19T01:11:50.814Z,14.77
2023-05-19T01:14:20.369Z,14.72
2023-05-19T01:17:20.687Z,14.69
2023-05-19T01:20:16.964Z,14.67
2023-05-19T01:23:29.418Z,14.65
2023-05-19T01:26:52.774Z,14.64
2023-05-19T01:30:11.812Z,14.64
2023-05-19T01:32:42.610Z,14.63
2023-05-19T01:35:16.029Z,14.63
2023-05-19T01:37:45.334Z,14.61
2023-05-19T01:40:13.525Z,14.62
2023-05-19T01:42:42.065Z,14.56
2023-05-19T01:45:10.576Z,14.52
2023-05-19T01:47:42.062Z,14.51
2023-05-19T01:50:11.018Z,14.48
2023-05-19T01:52:38.536Z,14.52
2023-05-19T01:55:07.242Z,14.48
2023-05-19T01:58:46.855Z,14.41
2023-05-19T02:01:38.417Z,14.36
2023-05-19T02:04:30.408Z,14.33
2023-05-19T02:07:38.084Z,14.33
2023-05-19T02:10:11.874Z,14.35
2023-05-19T02:12:41.471Z,14.34
2023-05-19T02:15:21.941Z,14.32
2023-05-19T02:17:54.360Z,14.31
2023-05-19T02:20:24.863Z,14.31
2023-05-19T02:22:52.258Z,14.33
2023-05-19T02:25:19.527Z,14.35
2023-05-19T02:27:46.960Z,14.35
2023-05-19T02:30:14.186Z,14.36
2023-05-19T02:32:41.462Z,14.37
2023-05-19T02:35:10.329Z,14.32
2023-05-19T02:37:37.926Z,14.34
2023-05-19T02:40:06.700Z,14.36
2023-05-19T02:42:34.132Z,14.42
2023-05-19T02:45:01.392Z,14.44
2023-05-19T02:47:28.705Z,14.43
2023-05-19T02:49:55.996Z,14.34
2023-05-19T02:52:25.532Z,14.33
2023-05-19T02:54:52.771Z,14.34
2023-05-19T02:57:23.144Z,14.30
2023-05-19T02:59:51.104Z,14.25
2023-05-19T03:02:18.563Z,14.23
2023-05-19T03:04:46.098Z,14.18
2023-05-19T03:07:13.554Z,14.15
2023-05-19T03:09:41.028Z,14.20
2023-05-19T03:12:08.597Z,14.21
2023-05-19T03:14:37.748Z,14.17
2023-05-19T03:17:07.995Z,14.19
2023-05-19T03:19:35.965Z,14.17
2023-05-19T03:22:03.631Z,14.20
2023-05-19T03:24:31.555Z,14.14
2023-05-19T03:26:59.058Z,14.14
2023-05-19T03:29:26.477Z,14.13
2023-05-19T03:31:54.335Z,14.10
2023-05-19T03:34:22.414Z,14.14
2023-05-19T03:36:50.325Z,14.08
2023-05-19T03:39:17.864Z,14.09
2023-05-19T03:41:47.903Z,14.08
2023-05-19T03:44:15.836Z,14.07
2023-05-19T03:46:44.006Z,14.09
2023-05-19T03:49:31.388Z,14.10
2023-05-19T03:52:33.866Z,14.08
2023-05-19T03:55:11.652Z,14.10
2023-05-19T03:57:41.516Z,14.11
2023-05-19T04:00:11.440Z,14.14
2023-05-19T04:02:45.243Z,14.16
2023-05-19T04:05:14.471Z,14.16
2023-05-19T04:07:42.957Z,14.25
2023-05-19T04:10:10.943Z,14.26
2023-05-19T04:12:38.244Z,14.26
2023-05-19T04:15:06.647Z,14.18
2023-05-19T04:17:34.102Z,14.17
2023-05-19T04:20:01.376Z,14.14
2023-05-19T04:22:29.630Z,14.12
2023-05-19T04:24:56.904Z,14.09
2023-05-19T04:27:26.069Z,14.10
2023-05-19T04:29:54.679Z,14.10
2023-05-19T04:32:22.595Z,14.10
2023-05-19T04:34:51.002Z,14.05
2023-05-19T04:37:24.246Z,14.07
2023-05-19T04:39:52.277Z,14.09
2023-05-19T04:42:21.072Z,14.08
2023-05-19T04:44:51.723Z,14.06
2023-05-19T04:47:21.497Z,14.06
2023-05-19T04:49:49.292Z,14.04
2023-05-19T04:52:21.690Z,14.06
2023-05-19T04:54:49.038Z,14.05
2023-05-19T04:57:16.661Z,14.06
2023-05-19T04:59:44.552Z,14.08
2023-05-19T05:02:12.309Z,14.10
2023-05-19T05:04:42.573Z,14.10
2023-05-19T05:07:10.756Z,14.10
2023-05-19T05:09:38.836Z,14.11
2023-05-19T05:12:07.975Z,14.10
2023-05-19T05:14:37.164Z,14.11
2023-05-19T05:17:05.079Z,14.11
2023-05-19T05:19:33.578Z,14.09
2023-05-19T05:22:01.541Z,14.09
2023-05-19T05:24:29.267Z,14.06
2023-05-19T05:26:59.762Z,14.02
2023-05-19T05:29:27.179Z,14.05
2023-05-19T05:31:57.176Z,14.07
2023-05-19T05:34:25.027Z,14.14
2023-05-19T05:36:52.272Z,14.22
2023-05-19T05:39:20.260Z,14.28
2023-05-19T05:41:47.612Z,14.27
2023-05-19T05:44:14.823Z,14.26
2023-05-19T05:46:44.685Z,14.30
2023-05-19T05:49:13.453Z,14.35
2023-05-19T05:51:54.361Z,14.40
2023-05-19T05:54:32.945Z,14.44
2023-05-19T05:57:02.582Z,14.52
2023-05-19T05:59:30.125Z,14.62
2023-05-19T06:01:57.366Z,14.70
2023-05-19T06:04:25.695Z,14.71
2023-05-19T06:06:57.247Z,14.72
2023-05-19T06:09:26.624Z,14.73
2023-05-19T06:11:53.834Z,14.77
2023-05-19T06:14:21.167Z,14.76
2023-05-19T06:17:08.379Z,14.80
2023-05-19T06:19:35.650Z,14.81
2023-05-19T06:22:03.358Z,14.83
2023-05-19T06:24:31.387Z,14.92
2023-05-19T06:26:58.712Z,14.93
2023-05-19T06:29:25.983Z,14.97
2023-05-19T06:31:56.167Z,14.95
2023-05-19T06:34:23.483Z,14.99
2023-05-19T06:36:50.819Z,15.02
2023-05-19T06:39:19.822Z,15.03
2023-05-19T06:41:47.041Z,15.05
2023-05-19T06:44:27.636Z,15.10
2023-05-19T06:46:54.929Z,15.19
2023-05-19T06:49:22.587Z,15.18
2023-05-19T06:51:49.969Z,15.22
2023-05-19T06:54:17.284Z,15.28
2023-05-19T06:56:45.036Z,15.28
2023-05-19T06:59:12.523Z,15.28
2023-05-19T07:01:39.845Z,15.24
2023-05-19T07:04:07.213Z,15.29
2023-05-19T07:06:34.908Z,15.41
2023-05-19T07:09:03.561Z,15.47
2023-05-19T07:11:31.924Z,15.46
2023-05-19T07:13:59.404Z,15.44
2023-05-19T07:16:30.818Z,15.53
2023-05-19T07:18:58.094Z,15.59
2023-05-19T07:21:25.559Z,15.65
2023-05-19T07:23:52.926Z,15.62
2023-05-19T07:26:20.269Z,15.69
2023-05-19T07:28:47.489Z,15.76
2023-05-19T07:31:14.900Z,15.87
2023-05-19T07:33:42.351Z,15.89
2023-05-19T07:36:09.742Z,15.86
2023-05-19T07:38:37.327Z,15.83
2023-05-19T07:41:04.734Z,15.83
2023-05-19T07:43:32.072Z,15.89
2023-05-19T07:45:59.454Z,15.77
2023-05-19T07:48:26.785Z,15.77
2023-05-19T07:50:54.416Z,15.81
2023-05-19T07:53:22.859Z,15.82
2023-05-19T07:55:50.254Z,15.88
2023-05-19T07:58:17.535Z,15.88
2023-05-19T08:00:45.889Z,16.00
2023-05-19T08:03:13.803Z,16.10
2023-05-19T08:05:42.374Z,16.05
2023-05-19T08:08:09.573Z,16.08
2023-05-19T08:10:36.921Z,16.24
2023-05-19T08:13:05.176Z,16.30
2023-05-19T08:15:32.842Z,16.11
2023-05-19T08:18:01.711Z,16.35
2023-05-19T08:20:28.896Z,16.50
2023-05-19T08:22:56.298Z,16.28
2023-05-19T08:25:23.609Z,16.28
2023-05-19T08:27:51.274Z,16.58
2023-05-19T08:30:18.537Z,16.76
2023-05-19T08:32:45.800Z,16.94
2023-05-19T08:35:13.206Z,16.92
2023-05-19T08:37:41.000Z,17.09
2023-05-19T08:40:12.274Z,17.25
2023-05-19T08:42:39.521Z,17.36
2023-05-19T08:45:07.724Z,17.35
2023-05-19T08:47:35.153Z,17.39
2023-05-19T08:50:10.720Z,17.37
2023-05-19T08:53:02.410Z,17.39
2023-05-19T08:55:35.655Z,17.32
2023-05-19T08:58:05.025Z,16.30
2023-05-19T09:00:33.976Z,16.32
2023-05-19T09:03:17.562Z,17.19
2023-05-19T09:05:46.794Z,17.64
2023-05-19T09:08:14.261Z,17.90
2023-05-19T09:10:41.665Z,17.83
2023-05-19T09:13:09.500Z,17.50
2023-05-19T09:15:39.154Z,17.74
2023-05-19T09:18:13.287Z,17.42
2023-05-19T09:20:43.826Z,17.21
2023-05-19T09:23:17.309Z,16.81
2023-05-19T09:25:53.331Z,17.33
2023-05-19T09:28:33.164Z,17.92
2023-05-19T09:31:11.383Z,17.86
2023-05-19T09:33:45.529Z,17.05
2023-05-19T09:36:13.878Z,17.29
2023-05-19T09:38:41.484Z,17.29
2023-05-19T09:41:09.685Z,17.76
2023-05-19T09:43:39.230Z,17.29
2023-05-19T09:46:14.766Z,17.91
2023-05-19T09:48:42.578Z,17.46
2023-05-19T09:51:11.008Z,17.39
2023-05-19T09:53:50.932Z,17.84
2023-05-19T09:56:23.569Z,18.19
2023-05-19T09:58:50.888Z,17.86
2023-05-19T10:01:19.101Z,17.87
2023-05-19T10:03:46.781Z,17.74
2023-05-19T10:06:15.690Z,17.60
2023-05-19T10:08:43.703Z,17.64
2023-05-19T10:11:12.129Z,17.64
2023-05-19T10:13:39.880Z,17.77
2023-05-19T10:16:08.713Z,18.01
2023-05-19T10:18:39.094Z,17.68
2023-05-19T10:21:09.569Z,17.57
2023-05-19T10:23:36.919Z,17.57
2023-05-19T10:26:06.661Z,17.55
2023-05-19T10:28:41.187Z,17.50
2023-05-19T10:34:33.263Z,17.75
2023-05-19T10:37:35.772Z,18.04
2023-05-19T10:40:20.237Z,18.17
2023-05-19T10:43:45.956Z,18.20
2023-05-19T10:46:13.494Z,18.20
2023-05-19T10:48:46.489Z,18.01
2023-05-19T10:51:15.476Z,17.86
2023-05-19T10:53:46.839Z,17.93
2023-05-19T10:56:34.079Z,17.97
2023-05-19T10:59:03.490Z,17.90
2023-05-19T11:01:34.490Z,17.74
2023-05-19T11:04:15.660Z,17.78
2023-05-19T11:06:52.183Z,17.74
2023-05-19T11:09:22.564Z,17.49
2023-05-19T11:11:54.481Z,17.11
2023-05-19T11:14:26.815Z,16.87
2023-05-19T11:16:59.159Z,16.80
2023-05-19T11:19:35.852Z,16.72
2023-05-19T11:22:13.918Z,16.77
2023-05-19T11:24:50.001Z,16.69
2023-05-19T11:27:29.010Z,16.77
2023-05-19T11:29:59.499Z,16.79
2023-05-19T11:32:34.811Z,16.88
2023-05-19T11:35:02.818Z,16.96
2023-05-19T11:37:34.886Z,17.00
2023-05-19T11:40:07.200Z,17.20
2023-05-19T11:42:36.860Z,17.27
2023-05-19T11:45:06.790Z,17.09
2023-05-19T11:47:46.461Z,17.00
2023-05-19T11:50:21.549Z,16.99
2023-05-19T11:52:48.974Z,16.84
2023-05-19T11:55:22.137Z,16.51
2023-05-19T11:58:07.602Z,16.82
2023-05-19T12:00:41.602Z,16.89
2023-05-19T12:03:10.170Z,16.79
2023-05-19T12:05:48.220Z,16.57
2023-05-19T12:08:18.734Z,16.95
2023-05-19T12:10:52.178Z,16.89
2023-05-19T12:13:22.985Z,16.40
2023-05-19T12:15:53.235Z,16.08
2023-05-19T12:18:21.248Z,16.24
2023-05-19T12:20:48.576Z,15.75
2023-05-19T12:23:16.559Z,15.63
2023-05-19T12:25:44.011Z,14.94
2023-05-19T12:28:11.645Z,14.81
2023-05-19T12:30:39.217Z,14.53
2023-05-19T12:33:09.496Z,14.45
2023-05-19T12:35:38.075Z,14.68
2023-05-19T12:38:07.170Z,14.45
2023-05-19T12:40:36.625Z,14.50
2023-05-19T12:43:05.426Z,14.59
2023-05-19T12:45:42.424Z,14.65
2023-05-19T12:48:12.214Z,14.68
2023-05-19T12:50:39.710Z,14.67
2023-05-19T12:53:11.771Z,14.61
2023-05-19T12:55:45.198Z,14.64
2023-05-19T12:58:13.217Z,14.70
2023-05-19T13:00:44.779Z,14.88
2023-05-19T13:03:18.963Z,14.57
2023-05-19T13:05:50.497Z,14.65
2023-05-19T13:08:21.826Z,14.57
2023-05-19T13:10:56.125Z,14.36
2023-05-19T13:13:23.334Z,14.27
2023-05-19T13:15:50.663Z,14.36
2023-05-19T13:18:18.592Z,14.34
2023-05-19T13:20:47.232Z,14.40
2023-05-19T13:23:14.885Z,14.40
2023-05-19T13:25:42.608Z,14.54
2023-05-19T13:28:10.808Z,14.58
2023-05-19T13:30:41.845Z,14.53
2023-05-19T13:33:09.293Z,14.16
2023-05-19T13:35:39.673Z,13.86
2023-05-19T13:38:11.261Z,14.01
2023-05-19T13:40:39.998Z,13.96
2023-05-19T13:43:08.554Z,14.09
2023-05-19T13:45:35.796Z,14.05
2023-05-19T13:48:03.289Z,14.31
2023-05-19T13:50:30.655Z,14.42
2023-05-19T13:52:58.079Z,14.48
2023-05-19T13:55:27.345Z,14.48
2023-05-19T13:57:54.669Z,14.66
2023-05-19T14:00:21.954Z,14.69
2023-05-19T14:02:49.407Z,14.87
2023-05-19T14:05:17.450Z,14.96
2023-05-19T14:07:44.819Z,14.95
2023-05-19T14:10:12.112Z,15.03
2023-05-19T14:12:47.823Z,15.09
2023-05-19T14:15:27.639Z,15.05
2023-05-19T14:17:54.969Z,14.97
2023-05-19T14:20:22.267Z,14.93
2023-05-19T14:22:49.569Z,14.82
2023-05-19T14:25:16.982Z,14.68
2023-05-19T14:27:44.183Z,14.68
2023-05-19T14:30:11.929Z,14.53
2023-05-19T14:32:39.328Z,14.46
2023-05-19T14:35:07.452Z,14.43
2023-05-19T14:37:34.656Z,14.44
2023-05-19T14:40:01.935Z,14.42
2023-05-19T14:42:29.489Z,14.42
2023-05-19T14:44:56.677Z,14.44
2023-05-19T14:47:25.658Z,14.46
2023-05-19T14:49:53.559Z,14.46
2023-05-19T14:52:20.902Z,14.53
2023-05-19T14:54:48.223Z,14.47
2023-05-19T14:57:15.433Z,14.31
2023-05-19T14:59:42.684Z,13.98
2023-05-19T15:02:11.519Z,13.96
2023-05-19T15:04:38.778Z,13.98
2023-05-19T15:07:11.607Z,14.04
2023-05-19T15:09:38.856Z,13.88
2023-05-19T15:12:06.311Z,13.69
2023-05-19T15:14:33.536Z,13.64
2023-05-19T15:17:00.792Z,13.73
2023-05-19T15:19:28.202Z,13.76
2023-05-19T15:21:55.559Z,13.73
2023-05-19T15:24:22.801Z,14.00
2023-05-19T15:26:50.157Z,14.10
2023-05-19T15:29:17.510Z,14.08
2023-05-19T15:31:44.886Z,14.15
2023-05-19T15:34:12.145Z,14.25
2023-05-19T15:36:39.429Z,14.18
2023-05-19T15:39:06.738Z,14.02
2023-05-19T15:41:34.150Z,13.97
2023-05-19T15:44:02.591Z,13.94
2023-05-19T15:46:30.802Z,13.91
2023-05-19T15:48:58.049Z,13.76
2023-05-19T15:51:26.188Z,13.69
2023-05-19T15:53:53.684Z,13.72
2023-05-19T15:56:21.565Z,13.75
2023-05-19T15:58:48.840Z,13.72
2023-05-19T16:01:16.442Z,13.75
2023-05-19T16:03:47.678Z,13.70
2023-05-19T16:06:15.035Z,13.67
2023-05-19T16:08:42.192Z,13.57
2023-05-19T16:11:09.445Z,13.55
2023-05-19T16:13:36.651Z,13.53
2023-05-19T16:16:04.307Z,13.45
2023-05-19T16:18:31.531Z,13.48
2023-05-19T16:20:58.751Z,13.56
2023-05-19T16:23:27.339Z,13.63
2023-05-19T16:25:54.881Z,13.63
2023-05-19T16:28:24.502Z,13.66
2023-05-19T16:30:52.184Z,13.65
2023-05-19T16:33:19.468Z,13.72
2023-05-19T16:35:46.763Z,13.77
2023-05-19T16:38:14.053Z,13.75
2023-05-19T16:40:41.281Z,13.72
2023-05-19T16:43:08.521Z,13.65
2023-05-19T16:45:35.728Z,13.67
2023-05-19T16:48:03.599Z,13.70
2023-05-19T16:50:31.060Z,13.72
2023-05-19T16:52:58.293Z,13.75
2023-05-19T16:55:26.674Z,13.72
2023-05-19T16:57:53.822Z,13.68
2023-05-19T17:00:21.136Z,13.63
2023-05-19T17:02:48.483Z,13.59
2023-05-19T17:05:15.895Z,13.59
2023-05-19T17:07:43.197Z,13.57
2023-05-19T17:10:10.867Z,13.58
2023-05-19T17:12:38.127Z,13.59
2023-05-19T17:15:06.506Z,13.59
2023-05-19T17:17:33.624Z,13.62
2023-05-19T17:20:01.379Z,13.65
2023-05-19T17:22:30.247Z,13.66
2023-05-19T17:24:57.757Z,13.64
2023-05-19T17:27:25.049Z,13.63
2023-05-19T17:29:52.293Z,13.57
2023-05-19T17:32:22.974Z,13.55
2023-05-19T17:34:50.180Z,13.59
2023-05-19T17:37:19.108Z,13.60
2023-05-19T17:39:46.310Z,13.55
2023-05-19T17:42:13.643Z,13.50
2023-05-19T17:44:41.315Z,13.45
2023-05-19T17:47:08.533Z,13.45
2023-05-19T17:49:35.862Z,13.46
2023-05-19T17:52:07.338Z,13.45
2023-05-19T17:54:35.197Z,13.42
2023-05-19T17:57:08.125Z,13.46
2023-05-19T17:59:35.716Z,13.51
2023-05-19T18:02:03.817Z,13.53
2023-05-19T18:04:31.784Z,13.43
2023-05-19T18:07:00.615Z,13.38
2023-05-19T18:09:30.276Z,13.39
2023-05-19T18:12:01.905Z,13.40
2023-05-19T18:14:29.194Z,13.37
2023-05-19T18:16:56.604Z,13.30
2023-05-19T18:19:23.953Z,13.27
2023-05-19T18:21:51.462Z,13.28
2023-05-19T18:24:18.671Z,13.23
2023-05-19T18:26:46.782Z,13.21
2023-05-19T18:29:14.635Z,13.19
2023-05-19T18:31:42.264Z,13.21
2023-05-19T18:34:09.524Z,13.16
2023-05-19T18:36:36.880Z,13.16
2023-05-19T18:39:04.607Z,13.19
2023-05-19T18:41:32.060Z,13.16
2023-05-19T18:43:59.274Z,13.14
2023-05-19T18:46:26.563Z,13.14
2023-05-19T18:48:53.945Z,13.15
2023-05-19T18:51:21.733Z,13.15
2023-05-19T18:53:50.108Z,13.14
2023-05-19T18:56:28.000Z,13.19
2023-05-19T18:58:55.320Z,13.16
2023-05-19T19:01:22.894Z,13.16
2023-05-19T19:03:50.552Z,13.10
2023-05-19T19:06:18.072Z,12.98
2023-05-19T19:08:45.454Z,12.82
2023-05-19T19:11:12.829Z,12.82
2023-05-19T19:13:40.408Z,12.94
2023-05-19T19:16:08.203Z,12.98
2023-05-19T19:18:36.449Z,13.04
2023-05-19T19:21:05.545Z,13.13
2023-05-19T19:23:33.148Z,13.06
2023-05-19T19:26:00.607Z,13.06
2023-05-19T19:28:28.029Z,13.14
2023-05-19T19:30:55.333Z,13.16
2023-05-19T19:33:22.650Z,13.11
2023-05-19T19:35:49.982Z,13.04
2023-05-19T19:38:17.351Z,13.03
2023-05-19T19:40:44.545Z,13.02
2023-05-19T19:43:11.766Z,12.99
2023-05-19T19:45:39.505Z,12.96
2023-05-19T19:48:07.330Z,12.94
2023-05-19T19:50:34.915Z,12.95
2023-05-19T19:53:02.557Z,12.93
2023-05-19T19:55:30.829Z,12.92
2023-05-19T19:57:58.082Z,12.92
2023-05-19T20:00:25.474Z,12.94
2023-05-19T20:03:04.258Z,12.89
2023-05-19T20:05:32.943Z,12.90
2023-05-19T20:08:00.264Z,12.88
2023-05-19T20:10:27.504Z,12.93
2023-05-19T20:12:54.754Z,12.89
2023-05-19T20:15:21.994Z,12.96
2023-05-19T20:17:50.526Z,12.89
2023-05-19T20:20:17.882Z,12.98
2023-05-19T20:22:45.885Z,13.03
2023-05-19T20:25:13.186Z,13.04
2023-05-19T20:27:40.499Z,13.01
2023-05-19T20:30:08.692Z,13.00
2023-05-19T20:32:36.216Z,12.95
2023-05-19T20:35:03.646Z,12.93
2023-05-19T20:37:30.969Z,12.86
2023-05-19T20:39:58.524Z,12.87
2023-05-19T20:42:25.764Z,12.88
2023-05-19T20:44:53.016Z,12.90
2023-05-19T20:47:20.955Z,12.92
2023-05-19T20:49:48.339Z,12.94
2023-05-19T20:52:19.083Z,12.90
2023-05-19T20:54:46.444Z,12.88
2023-05-19T20:57:15.722Z,12.88
2023-05-19T20:59:42.924Z,12.86
2023-05-19T21:02:11.587Z,12.92
2023-05-19T21:04:39.423Z,12.93
2023-05-19T21:07:06.828Z,12.92
2023-05-19T21:09:34.163Z,12.90
2023-05-19T21:12:01.982Z,12.90
2023-05-19T21:14:29.246Z,12.91
2023-05-19T21:16:56.925Z,12.94
2023-05-19T21:19:24.214Z,12.93
2023-05-19T21:21:51.495Z,12.95
2023-05-19T21:24:18.683Z,12.92
2023-05-19T21:26:45.962Z,12.97
2023-05-19T21:29:13.204Z,12.95
2023-05-19T21:31:40.687Z,12.91
2023-05-19T21:34:08.033Z,12.89
2023-05-19T21:36:35.282Z,12.86
2023-05-19T21:39:03.616Z,12.87
2023-05-19T21:41:32.337Z,12.90
2023-05-19T21:43:59.529Z,12.89
2023-05-19T21:46:28.912Z,12.87
2023-05-19T21:48:56.265Z,12.87
2023-05-19T21:51:23.549Z,12.90
2023-05-19T21:53:50.754Z,12.90
2023-05-19T21:56:18.010Z,12.88
2023-05-19T21:58:45.291Z,12.87
2023-05-19T22:01:13.194Z,12.88
2023-05-19T22:03:40.462Z,12.89
2023-05-19T22:06:08.262Z,12.89
2023-05-19T22:08:35.616Z,12.89
2023-05-19T22:11:03.050Z,12.88
2023-05-19T22:13:30.617Z,12.89
2023-05-19T22:15:58.389Z,12.89
2023-05-19T22:18:25.661Z,12.89
2023-05-19T22:20:52.839Z,12.88
2023-05-19T22:23:20.043Z,12.90
2023-05-19T22:25:47.245Z,12.85
2023-05-19T22:28:14.613Z,12.85
2023-05-19T22:30:44.457Z,12.86
2023-05-19T22:33:13.018Z,12.82
2023-05-19T22:35:40.360Z,12.80
2023-05-19T22:38:10.266Z,12.82
2023-05-19T22:40:38.396Z,12.82
2023-05-19T22:43:05.703Z,12.82
2023-05-19T22:45:35.813Z,12.83
2023-05-19T22:48:03.460Z,12.85
2023-05-19T22:50:30.804Z,12.82
2023-05-19T22:52:58.000Z,12.81
2023-05-19T22:55:25.314Z,12.85
2023-05-19T22:57:52.477Z,12.85
2023-05-19T23:00:20.977Z,12.88
2023-05-19T23:02:48.322Z,12.86
2023-05-19T23:05:15.773Z,12.83
2023-05-19T23:07:43.031Z,12.82
2023-05-19T23:10:10.864Z,12.81
2023-05-19T23:12:38.154Z,12.81
2023-05-19T23:15:07.869Z,12.78
2023-05-19T23:17:36.015Z,12.77
2023-05-19T23:20:03.931Z,12.79
2023-05-19T23:22:31.428Z,12.76
2023-05-19T23:24:58.712Z,12.76
2023-05-19T23:27:26.552Z,12.76
2023-05-19T23:29:53.705Z,12.79
2023-05-19T23:32:20.865Z,12.77
2023-05-19T23:34:48.753Z,12.72
2023-05-19T23:37:16.220Z,12.72
2023-05-19T23:39:43.569Z,12.72
2023-05-19T23:42:10.912Z,12.71
2023-05-19T23:44:38.133Z,12.73
2023-05-19T23:47:06.164Z,12.71
2023-05-19T23:49:33.485Z,12.72
2023-05-19T23:52:00.731Z,12.71
2023-05-19T23:54:30.165Z,12.70
2023-05-19T23:56:58.600Z,12.74
2023-05-19T23:59:25.680Z,12.75
